Huvudsida
METAR-TAF:

METAR-TAF

Flygplatser :

Stavangers flygplats. Sola

Stavanger, Norge

latitud: 58-53N, longitud: 005-38E, höjd: 0 m

Aktuellt väderrapport

Denna rapport gjordes för 33 minuter sedan, klockan 12:20 UTC
Vind 12 kt från sydväst
Temperatur 16°C
Fuktighet 72%
Tryck 1008 hPa
Sikt 10 km eller mer
Få moln på en höjd av 4000 ft
Brutna moln på en höjd av 6400 ft
lätt regn

METAR: ENZV 181220Z 22012KT 9999 -RA FEW040 BKN064 16/11 Q1008 NOSIG

Tid: 14:53 (12:53 UTC)

Väderprognos

Prognos gäller från 18 kl. 12 UTC till 19 kl. 12 UTC
Vind 12 kt från väst/sydväst
Sikt 10 km eller mer
Få moln på en höjd av 2000 ft
Brutna moln på en höjd av 3500 ft
Sannolikhet 30% :
Temporärt
från 18 kl. 12 UTC till 19 kl. 09 UTC
Sikt: 4000 m
Brutna moln på en höjd av 1200 ft
duggregn, regn

TAF: ENZV 1812/1912 25012KT 9999 FEW020 BKN035 PROB30 TEMPO 1812/1909 4000 DZRA BKN012

Aktuella väderrapporter och prognoser från 4000 flygplatser (METAR- och TAF-rapporter).

De tillgängliga stationerna syns som gula och röda prickar på kartan.

För musen över prickarna för att se namnen på stationerna.

Klicka sedan för att få väderrapporter och prognoser.

För att ändra kartan: Klicka på de gröna knapparna med ett svart kors på för att zooma in; den gröna knappen med ett streck på för att zooma ut; eller på de gröna pilarna för angränsande kartor.


METAR-TAF: